• Join FlightAware (Why Join?)
  • Login
  • US Flag 
09:32PM EST


 

Airport Tracker/Info


-or-


 

Live Flight TrackerFlight Track Log ✈ UAL1551 ✈ 07-May-2012 ✈ KEWR - KORD

Flight Track Log - Related Links

Times and Time Zones

All times are in EDT time to prevent confusion due to time zone crossing. See the UAL1551 flight status page for this flight to view local times or setup timezone preferences in your user account.

Time Position Orientation Groundspeed Altitude Reporting Facility
EDT Latitude Longitude Course Direction KTS MPH feet Rate Location/Type
11:22AM 40.7295 -74.2129 164° South  Level FlightAware Approximate
11:23AM 40.6500 -74.1833 313° West 177 204 2,000  Level New York TRACON
11:28AM 40.8972 -74.5403 334° Northwest 265 305 9,000 1,020 Climbing New York Center
11:29AM 40.9708 -74.5883 334° Northwest 265 305 9,000 780 Level New York Center
11:31AM 41.0422 -74.6336 334° Northwest 273 314 10,600 1,500 Climbing New York Center
11:32AM 41.1197 -74.6847 306° West 294 338 12,100 2,160 Climbing New York Center
11:33AM 41.1767 -74.7872 301° West 330 380 15,000 2,760 Climbing New York Center
11:33AM 41.2269 -74.8978 299° West 354 407 17,600 2,100 Climbing New York Center
11:37AM 41.3764 -75.2525 300° West 381 438 23,500 1,860 Climbing New York Center
11:38AM 41.4300 -75.3781 300° West 391 450 25,300 1,620 Climbing New York Center
11:39AM 41.4853 -75.5064 291° West 391 450 26,800 1,560 Climbing New York Center
11:42AM 41.6522 -76.0928 290° West 417 480 33,100 1,020 Climbing New York Center
11:47AM 41.8358 -76.7592 290° West 375 432 36,000 480 Climbing Cleveland Center
11:48AM 41.8717 -76.8936 290° West 382 440 36,000  Level Cleveland Center
11:49AM 41.9069 -77.0228 290° West 375 432 36,000  Level Cleveland Center
11:50AM 41.9422 -77.1547 289° West 375 432 36,000  Level Cleveland Center
11:51AM 41.9753 -77.2872 290° West 380 437 36,000  Level Cleveland Center
11:52AM 42.0078 -77.4058 291° West 380 437 36,000  Level Cleveland Center
11:53AM 42.0469 -77.5408 289° West 380 437 36,000  Level Cleveland Center
11:54AM 42.0817 -77.6733 289° West 380 437 36,000  Level Cleveland Center
11:55AM 42.1161 -77.8064 289° West 380 437 36,000  Level Cleveland Center
11:56AM 42.1506 -77.9392 290° West 380 437 36,000  Level Cleveland Center
11:57AM 42.1892 -78.0861 289° West 380 437 36,000  Level Cleveland Center
11:58AM 42.2233 -78.2222 291° West 380 437 36,000  Level Cleveland Center
11:59AM 42.2594 -78.3528 289° West 380 437 36,000  Level Cleveland Center
12:00PM 42.2933 -78.4892 288° West 380 437 36,000  Level Cleveland Center
12:01PM 42.3269 -78.6256 290° West 380 437 36,000  Level Cleveland Center
12:02PM 42.3622 -78.7539 288° West 375 432 36,000  Level Cleveland Center
12:03PM 42.3958 -78.8906 288° West 375 432 36,000  Level Cleveland Center
12:04PM 42.4244 -79.0108 290° West 375 432 36,000  Level Cleveland Center
12:05PM 42.4597 -79.1450 288° West 380 437 36,000  Level Cleveland Center
12:06PM 42.4925 -79.2850 273° West 380 437 36,000  Level Cleveland Center
12:07PM 42.4983 -79.4286 274° West 385 443 36,000  Level Cleveland Center
12:08PM 42.5058 -79.5722 274° West 385 443 36,000  Level Cleveland Center
12:09PM 42.5133 -79.7128 274° West 385 443 36,000  Level Cleveland Center
12:10PM 42.5206 -79.8564 273° West 385 443 36,000  Level Cleveland Center
12:11PM 42.5256 -80.0142 273° West 385 443 36,000  Level Cleveland Center
12:12PM 42.5303 -80.1578 274° West 385 443 36,000  Level Cleveland Center
12:13PM 42.5369 -80.3014 274° West 385 443 36,000  Level Cleveland Center
12:14PM 42.5436 -80.4508 273° West 390 449 36,000  Level Cleveland Center
12:15PM 42.5497 -80.5944 273° West 389 448 36,000  Level Cleveland Center
12:16PM 42.5558 -80.7411 273° West 389 448 36,000  Level Cleveland Center
12:17PM 42.5619 -80.8875 272° West 394 453 36,000  Level Cleveland Center
12:18PM 42.5656 -81.0369 273° West 394 453 36,000  Level Cleveland Center
12:19PM 42.5711 -81.1808 272° West 394 453 36,000  Level Cleveland Center
12:20PM 42.5744 -81.3161 275° West 394 453 36,000  Level Cleveland Center
12:21PM 42.5839 -81.4631 284° West 394 453 36,000  Level Cleveland Center
12:22PM 42.6100 -81.6044 284° West 394 453 36,000  Level Cleveland Center
12:23PM 42.6356 -81.7486 282° West 394 453 36,000  Level Cleveland Center
12:24PM 42.6611 -81.9072 283° West 394 453 36,000  Level Cleveland Center
12:25PM 42.6864 -82.0519 283° West 394 453 36,000  Level Cleveland Center
12:26PM 42.7114 -82.1967 283° West 394 453 36,000 -60 Level Cleveland Center
12:27PM 42.7364 -82.3414 282° West 394 453 35,900 -60 Descending Cleveland Center
12:28PM 42.7592 -82.4892 294° West 394 453 35,900  Level Cleveland Center
12:29PM 42.8047 -82.6264 299° West 394 453 36,000  Climbing Cleveland Center
12:30PM 42.8606 -82.7614 301° West 404 465 36,000  Level Cleveland Center
12:31PM 42.9164 -82.8881 300° West 404 465 36,000 -60 Level Cleveland Center
12:32PM 42.9722 -83.0206 297° West 404 465 35,900 -360 Descending Cleveland Center
12:33PM 43.0214 -83.1531 263° West 396 456 35,300 -780 Descending Cleveland Center
12:34PM 43.0075 -83.3003 264° West 381 438 34,400 -1,020 Descending Cleveland Center
12:35PM 42.9956 -83.4475 262° West 388 447 33,300 -960 Descending Cleveland Center
12:36PM 42.9819 -83.5831 263° West 393 452 32,500 -660 Descending Cleveland Center
12:37PM 42.9672 -83.7356 263° West 406 467 32,000 -300 Descending Cleveland Center
12:38PM 42.9528 -83.8853 263° West 406 467 32,000  Level Cleveland Center
12:39PM 42.9378 -84.0403 263° West 412 474 32,000  Level Cleveland Center
12:42PM 42.9058 -84.3744 261° West 408 470 32,000  Level Chicago Center
12:43PM 42.8894 -84.5231 263° West 408 470 32,000  Level Chicago Center
12:44PM 42.8781 -84.6544 261° West 408 470 32,000  Level Chicago Center
12:45PM 42.8611 -84.8031 262° West 408 470 32,000  Level Chicago Center
12:46PM 42.8458 -84.9486 262° West 408 470 32,000  Level Chicago Center
12:47PM 42.8306 -85.1000 261° West 408 470 32,000  Level Chicago Center
12:48PM 42.8131 -85.2483 262° West 408 470 32,000  Level Chicago Center
12:49PM 42.7975 -85.3967 260° West 408 470 32,000 -240 Level Chicago Center
12:50PM 42.7758 -85.5592 256° West 408 470 31,600 -1,680 Descending Chicago Center
12:51PM 42.7494 -85.7078 256° West 408 470 28,700 -2,580 Descending Chicago Center
12:52PM 42.7225 -85.8508 256° West 403 464 26,500 -2,220 Descending Chicago Center
12:53PM 42.6956 -85.9936 258° West 397 457 24,300 -2,040 Descending Chicago Center
12:54PM 42.6761 -86.1161 255° West 392 451 22,500 -2,040 Descending Chicago Center
12:55PM 42.6486 -86.2531 257° West 380 437 20,300 -1,260 Descending Chicago Center
12:56PM 42.6269 -86.3839 255° West 375 432 20,000 -180 Descending Chicago Center
12:57PM 42.6011 -86.5150 256° West 370 426 20,000 -840 Level Chicago Center
12:58PM 42.5772 -86.6458 254° West 364 419 18,400 -1,800 Descending Chicago Center
12:59PM 42.5469 -86.7853 248° West 359 413 16,500 -2,220 Descending Chicago Center
01:00PM 42.5119 -86.9050 251° West 354 407 14,000 -2,220 Descending Chicago Center
01:01PM 42.4792 -87.0328 249° West 349 402 11,700 -1,800 Descending Chicago Center
01:02PM 42.4403 -87.1722 249° West 349 402 10,100 -1,260 Descending Chicago Center
01:03PM 42.4108 -87.2744 255° West 325 374 9,200 -600 Descending Chicago Center
01:04PM 42.3936 -87.3594 248° West 309 356 9,000 -780 Descending Chicago Center
01:05PM 42.3581 -87.4758 239° Southwest 292 336 7,700 -1,380 Descending Chicago Center
01:06PM 42.3197 -87.5611 178° South 272 313 6,300 -1,140 Descending Chicago Center
01:07PM 42.2428 -87.5575 175° South 290 334 5,500 -660 Descending Chicago Center
01:08PM 42.1694 -87.5486 161° South 290 334 5,000 -480 Descending Chicago Center
01:09PM 42.1000 -87.5167 90° East 197 227 4,500 -420 Descending Chicago TRACON
01:10PM 42.1000 -87.4333 114° Southeast 198 228 4,000 -240 Descending Chicago TRACON
01:11PM 42.0833 -87.3833 166° South 199 229 4,000  Level Chicago TRACON
01:12PM 42.0333 -87.3667 246° West 182 209 4,000  Level Chicago TRACON
01:13PM 42.0167 -87.4167 251° West 172 198 4,000  Level Chicago TRACON
01:14PM 42.0000 -87.4833 270° West 169 194 4,000  Level Chicago TRACON
01:15PM 42.0000 -87.5500 270° West 168 193 4,000  Level Chicago TRACON
01:16PM 42.0000 -87.6167 270° West 171 197 4,000 -60 Level Chicago TRACON
01:17PM 42.0000 -87.6833 270° West 171 197 3,900 -120 Descending Chicago TRACON